sensor_id;sensor_type;location;lat;lon;timestamp;P1;durP1;ratioP1;P2;durP2;ratioP2
13230;SDS011;6681;53.254;10.398;2023-01-06T00:00:14;13.67;;;7.53;;
13230;SDS011;6681;53.254;10.398;2023-01-06T00:02:40;11.67;;;7.30;;
13230;SDS011;6681;53.254;10.398;2023-01-06T00:05:05;12.80;;;6.50;;
13230;SDS011;6681;53.254;10.398;2023-01-06T00:07:31;13.47;;;7.63;;
13230;SDS011;6681;53.254;10.398;2023-01-06T00:09:57;10.97;;;8.07;;
13230;SDS011;6681;53.254;10.398;2023-01-06T00:12:22;14.97;;;7.63;;
13230;SDS011;6681;53.254;10.398;2023-01-06T00:14:50;11.87;;;6.53;;
13230;SDS011;6681;53.254;10.398;2023-01-06T00:17:16;13.53;;;8.80;;
13230;SDS011;6681;53.254;10.398;2023-01-06T00:19:42;18.13;;;11.27;;
13230;SDS011;6681;53.254;10.398;2023-01-06T00:22:07;15.60;;;9.00;;
13230;SDS011;6681;53.254;10.398;2023-01-06T00:24:33;15.67;;;8.47;;
13230;SDS011;6681;53.254;10.398;2023-01-06T00:26:59;11.73;;;7.53;;
13230;SDS011;6681;53.254;10.398;2023-01-06T00:29:25;24.47;;;15.17;;
13230;SDS011;6681;53.254;10.398;2023-01-06T00:31:51;18.83;;;10.63;;
13230;SDS011;6681;53.254;10.398;2023-01-06T00:34:18;21.77;;;10.47;;
13230;SDS011;6681;53.254;10.398;2023-01-06T00:36:43;19.77;;;10.47;;
13230;SDS011;6681;53.254;10.398;2023-01-06T00:39:12;32.47;;;23.33;;
13230;SDS011;6681;53.254;10.398;2023-01-06T00:41:38;13.33;;;8.47;;
13230;SDS011;6681;53.254;10.398;2023-01-06T00:44:23;16.50;;;9.93;;
13230;SDS011;6681;53.254;10.398;2023-01-06T00:46:49;17.20;;;10.70;;
13230;SDS011;6681;53.254;10.398;2023-01-06T00:49:14;18.37;;;11.43;;
13230;SDS011;6681;53.254;10.398;2023-01-06T00:51:40;28.83;;;11.30;;
13230;SDS011;6681;53.254;10.398;2023-01-06T00:54:09;13.77;;;8.47;;
13230;SDS011;6681;53.254;10.398;2023-01-06T00:56:37;17.17;;;9.63;;
13230;SDS011;6681;53.254;10.398;2023-01-06T00:59:06;15.13;;;8.53;;
13230;SDS011;6681;53.254;10.398;2023-01-06T01:01:33;21.40;;;9.37;;
13230;SDS011;6681;53.254;10.398;2023-01-06T01:03:59;18.70;;;9.87;;
13230;SDS011;6681;53.254;10.398;2023-01-06T01:06:25;22.57;;;13.93;;
13230;SDS011;6681;53.254;10.398;2023-01-06T01:08:54;19.80;;;10.53;;
13230;SDS011;6681;53.254;10.398;2023-01-06T01:11:22;24.73;;;12.90;;
13230;SDS011;6681;53.254;10.398;2023-01-06T01:14:06;17.90;;;10.63;;
13230;SDS011;6681;53.254;10.398;2023-01-06T01:16:32;15.93;;;10.33;;
13230;SDS011;6681;53.254;10.398;2023-01-06T01:18:58;27.47;;;13.83;;
13230;SDS011;6681;53.254;10.398;2023-01-06T01:21:24;27.23;;;14.43;;
13230;SDS011;6681;53.254;10.398;2023-01-06T01:23:53;36.80;;;20.53;;
13230;SDS011;6681;53.254;10.398;2023-01-06T01:26:18;38.67;;;19.27;;
13230;SDS011;6681;53.254;10.398;2023-01-06T01:28:44;22.60;;;15.33;;
13230;SDS011;6681;53.254;10.398;2023-01-06T01:31:10;26.73;;;16.03;;
13230;SDS011;6681;53.254;10.398;2023-01-06T01:33:37;46.27;;;25.93;;
13230;SDS011;6681;53.254;10.398;2023-01-06T01:36:07;36.60;;;18.83;;
13230;SDS011;6681;53.254;10.398;2023-01-06T01:38:34;24.57;;;13.73;;
13230;SDS011;6681;53.254;10.398;2023-01-06T01:41:00;34.33;;;17.47;;
13230;SDS011;6681;53.254;10.398;2023-01-06T01:46:15;29.53;;;17.90;;
13230;SDS011;6681;53.254;10.398;2023-01-06T01:48:44;29.43;;;15.57;;
13230;SDS011;6681;53.254;10.398;2023-01-06T01:51:10;28.47;;;16.27;;
13230;SDS011;6681;53.254;10.398;2023-01-06T01:53:45;38.97;;;19.93;;
13230;SDS011;6681;53.254;10.398;2023-01-06T01:56:15;37.43;;;20.13;;
13230;SDS011;6681;53.254;10.398;2023-01-06T01:58:48;25.40;;;15.63;;
13230;SDS011;6681;53.254;10.398;2023-01-06T02:01:19;27.23;;;16.93;;
13230;SDS011;6681;53.254;10.398;2023-01-06T02:03:45;29.27;;;16.30;;
13230;SDS011;6681;53.254;10.398;2023-01-06T02:06:12;27.03;;;15.20;;
13230;SDS011;6681;53.254;10.398;2023-01-06T02:09:02;25.83;;;14.07;;
13230;SDS011;6681;53.254;10.398;2023-01-06T02:11:47;25.17;;;15.63;;
13230;SDS011;6681;53.254;10.398;2023-01-06T02:14:19;27.00;;;14.83;;
13230;SDS011;6681;53.254;10.398;2023-01-06T02:19:43;33.57;;;17.03;;
13230;SDS011;6681;53.254;10.398;2023-01-06T02:25:23;24.53;;;14.20;;
13230;SDS011;6681;53.254;10.398;2023-01-06T02:28:33;31.53;;;16.70;;
13230;SDS011;6681;53.254;10.398;2023-01-06T02:33:56;32.00;;;17.03;;
13230;SDS011;6681;53.254;10.398;2023-01-06T02:36:44;24.90;;;15.40;;
13230;SDS011;6681;53.254;10.398;2023-01-06T02:42:07;24.60;;;15.30;;
13230;SDS011;6681;53.254;10.398;2023-01-06T02:47:29;27.10;;;14.57;;
13230;SDS011;6681;53.254;10.398;2023-01-06T02:55:50;34.53;;;17.07;;
13230;SDS011;6681;53.254;10.398;2023-01-06T03:01:13;27.27;;;17.17;;
13230;SDS011;6681;53.254;10.398;2023-01-06T03:03:44;32.33;;;17.47;;
13230;SDS011;6681;53.254;10.398;2023-01-06T03:06:13;30.17;;;17.50;;
13230;SDS011;6681;53.254;10.398;2023-01-06T03:08:42;28.30;;;15.03;;
13230;SDS011;6681;53.254;10.398;2023-01-06T03:11:10;30.93;;;17.43;;
13230;SDS011;6681;53.254;10.398;2023-01-06T03:13:38;30.17;;;15.73;;
13230;SDS011;6681;53.254;10.398;2023-01-06T03:16:14;32.23;;;17.63;;
13230;SDS011;6681;53.254;10.398;2023-01-06T03:18:41;35.97;;;18.63;;
13230;SDS011;6681;53.254;10.398;2023-01-06T03:21:09;24.23;;;15.47;;
13230;SDS011;6681;53.254;10.398;2023-01-06T03:23:38;30.00;;;16.17;;
13230;SDS011;6681;53.254;10.398;2023-01-06T03:26:05;27.63;;;17.40;;
13230;SDS011;6681;53.254;10.398;2023-01-06T03:28:31;27.83;;;16.13;;
13230;SDS011;6681;53.254;10.398;2023-01-06T03:39:38;19.67;;;13.33;;
13230;SDS011;6681;53.254;10.398;2023-01-06T03:48:35;24.03;;;13.90;;
13230;SDS011;6681;53.254;10.398;2023-01-06T03:53:36;19.40;;;12.53;;
13230;SDS011;6681;53.254;10.398;2023-01-06T03:56:06;21.07;;;13.43;;
13230;SDS011;6681;53.254;10.398;2023-01-06T03:58:38;25.60;;;14.03;;
13230;SDS011;6681;53.254;10.398;2023-01-06T04:01:04;24.73;;;13.23;;
13230;SDS011;6681;53.254;10.398;2023-01-06T04:03:32;18.80;;;13.03;;
13230;SDS011;6681;53.254;10.398;2023-01-06T04:05:58;18.70;;;12.43;;
13230;SDS011;6681;53.254;10.398;2023-01-06T04:08:24;16.47;;;12.00;;
13230;SDS011;6681;53.254;10.398;2023-01-06T04:10:50;21.63;;;14.57;;
13230;SDS011;6681;53.254;10.398;2023-01-06T04:13:16;23.17;;;12.27;;
13230;SDS011;6681;53.254;10.398;2023-01-06T04:15:41;26.00;;;13.83;;
13230;SDS011;6681;53.254;10.398;2023-01-06T04:18:07;25.83;;;15.07;;
13230;SDS011;6681;53.254;10.398;2023-01-06T04:20:33;19.70;;;12.37;;
13230;SDS011;6681;53.254;10.398;2023-01-06T04:22:58;20.13;;;12.17;;
13230;SDS011;6681;53.254;10.398;2023-01-06T04:25:24;18.47;;;12.53;;
13230;SDS011;6681;53.254;10.398;2023-01-06T04:27:49;21.40;;;13.40;;
13230;SDS011;6681;53.254;10.398;2023-01-06T04:30:16;24.90;;;12.57;;
13230;SDS011;6681;53.254;10.398;2023-01-06T04:32:42;25.00;;;13.73;;
13230;SDS011;6681;53.254;10.398;2023-01-06T04:35:08;25.33;;;14.57;;
13230;SDS011;6681;53.254;10.398;2023-01-06T04:37:34;30.53;;;14.63;;
13230;SDS011;6681;53.254;10.398;2023-01-06T04:40:00;21.37;;;12.90;;
13230;SDS011;6681;53.254;10.398;2023-01-06T04:42:26;24.70;;;13.90;;
13230;SDS011;6681;53.254;10.398;2023-01-06T04:44:51;20.30;;;13.30;;
13230;SDS011;6681;53.254;10.398;2023-01-06T04:47:17;24.63;;;14.27;;
13230;SDS011;6681;53.254;10.398;2023-01-06T04:49:43;23.63;;;13.93;;
13230;SDS011;6681;53.254;10.398;2023-01-06T04:52:08;22.43;;;13.47;;
13230;SDS011;6681;53.254;10.398;2023-01-06T04:54:34;25.43;;;14.33;;
13230;SDS011;6681;53.254;10.398;2023-01-06T04:57:00;21.10;;;12.03;;
13230;SDS011;6681;53.254;10.398;2023-01-06T04:59:26;24.03;;;11.80;;
13230;SDS011;6681;53.254;10.398;2023-01-06T05:01:52;25.93;;;12.43;;
13230;SDS011;6681;53.254;10.398;2023-01-06T05:04:17;19.20;;;11.90;;
13230;SDS011;6681;53.254;10.398;2023-01-06T05:06:44;20.77;;;12.67;;
13230;SDS011;6681;53.254;10.398;2023-01-06T05:09:09;22.03;;;12.17;;
13230;SDS011;6681;53.254;10.398;2023-01-06T05:11:35;23.43;;;13.30;;
13230;SDS011;6681;53.254;10.398;2023-01-06T05:14:01;16.47;;;11.27;;
13230;SDS011;6681;53.254;10.398;2023-01-06T05:16:30;26.10;;;11.07;;
13230;SDS011;6681;53.254;10.398;2023-01-06T05:18:57;18.73;;;11.70;;
13230;SDS011;6681;53.254;10.398;2023-01-06T05:21:24;17.83;;;11.70;;
13230;SDS011;6681;53.254;10.398;2023-01-06T05:23:51;24.77;;;12.60;;
13230;SDS011;6681;53.254;10.398;2023-01-06T05:26:19;22.60;;;11.57;;
13230;SDS011;6681;53.254;10.398;2023-01-06T05:28:48;18.83;;;11.93;;
13230;SDS011;6681;53.254;10.398;2023-01-06T05:31:13;18.87;;;11.17;;
13230;SDS011;6681;53.254;10.398;2023-01-06T05:33:40;21.03;;;11.53;;
13230;SDS011;6681;53.254;10.398;2023-01-06T05:36:10;20.37;;;12.50;;
13230;SDS011;6681;53.254;10.398;2023-01-06T05:38:37;15.13;;;10.63;;
13230;SDS011;6681;53.254;10.398;2023-01-06T05:41:03;20.20;;;11.90;;
13230;SDS011;6681;53.254;10.398;2023-01-06T05:43:29;17.67;;;10.73;;
13230;SDS011;6681;53.254;10.398;2023-01-06T05:45:57;22.00;;;12.37;;
13230;SDS011;6681;53.254;10.398;2023-01-06T05:48:24;20.53;;;10.93;;
13230;SDS011;6681;53.254;10.398;2023-01-06T05:50:51;18.67;;;11.17;;
13230;SDS011;6681;53.254;10.398;2023-01-06T05:53:17;18.07;;;11.10;;
13230;SDS011;6681;53.254;10.398;2023-01-06T05:55:43;21.07;;;10.33;;
13230;SDS011;6681;53.254;10.398;2023-01-06T05:58:08;23.60;;;11.23;;
13230;SDS011;6681;53.254;10.398;2023-01-06T06:00:34;21.13;;;11.20;;
13230;SDS011;6681;53.254;10.398;2023-01-06T06:02:59;16.97;;;11.43;;
13230;SDS011;6681;53.254;10.398;2023-01-06T06:05:25;21.57;;;12.23;;
13230;SDS011;6681;53.254;10.398;2023-01-06T06:07:54;20.23;;;13.30;;
13230;SDS011;6681;53.254;10.398;2023-01-06T06:10:21;22.57;;;14.07;;
13230;SDS011;6681;53.254;10.398;2023-01-06T06:12:47;22.00;;;13.80;;
13230;SDS011;6681;53.254;10.398;2023-01-06T06:15:12;18.63;;;14.03;;
13230;SDS011;6681;53.254;10.398;2023-01-06T06:17:38;21.50;;;13.80;;
13230;SDS011;6681;53.254;10.398;2023-01-06T06:20:04;19.03;;;13.23;;
13230;SDS011;6681;53.254;10.398;2023-01-06T06:22:30;18.90;;;11.27;;
13230;SDS011;6681;53.254;10.398;2023-01-06T06:24:55;17.70;;;12.23;;
13230;SDS011;6681;53.254;10.398;2023-01-06T06:27:21;17.23;;;11.33;;
13230;SDS011;6681;53.254;10.398;2023-01-06T06:29:47;15.20;;;10.83;;
13230;SDS011;6681;53.254;10.398;2023-01-06T06:32:12;18.33;;;12.07;;
13230;SDS011;6681;53.254;10.398;2023-01-06T06:34:38;24.80;;;12.63;;
13230;SDS011;6681;53.254;10.398;2023-01-06T06:37:04;15.93;;;12.80;;
13230;SDS011;6681;53.254;10.398;2023-01-06T06:39:29;16.20;;;11.67;;
13230;SDS011;6681;53.254;10.398;2023-01-06T06:41:55;21.80;;;11.30;;
13230;SDS011;6681;53.254;10.398;2023-01-06T06:44:20;18.67;;;12.27;;
13230;SDS011;6681;53.254;10.398;2023-01-06T06:46:46;15.80;;;12.30;;
13230;SDS011;6681;53.254;10.398;2023-01-06T06:49:12;24.50;;;14.10;;
13230;SDS011;6681;53.254;10.398;2023-01-06T06:51:37;17.00;;;13.10;;
13230;SDS011;6681;53.254;10.398;2023-01-06T06:54:03;16.97;;;12.87;;
13230;SDS011;6681;53.254;10.398;2023-01-06T06:56:29;22.90;;;13.20;;
13230;SDS011;6681;53.254;10.398;2023-01-06T06:58:54;16.87;;;12.33;;
13230;SDS011;6681;53.254;10.398;2023-01-06T07:01:20;21.33;;;13.10;;
13230;SDS011;6681;53.254;10.398;2023-01-06T07:03:46;18.20;;;12.37;;
13230;SDS011;6681;53.254;10.398;2023-01-06T07:06:13;13.30;;;11.27;;
13230;SDS011;6681;53.254;10.398;2023-01-06T07:08:46;19.33;;;13.50;;
13230;SDS011;6681;53.254;10.398;2023-01-06T07:11:12;18.37;;;12.90;;
13230;SDS011;6681;53.254;10.398;2023-01-06T07:13:38;17.77;;;13.43;;
13230;SDS011;6681;53.254;10.398;2023-01-06T07:16:04;20.83;;;12.70;;
13230;SDS011;6681;53.254;10.398;2023-01-06T07:18:30;16.30;;;12.27;;
13230;SDS011;6681;53.254;10.398;2023-01-06T07:20:56;18.23;;;13.40;;
13230;SDS011;6681;53.254;10.398;2023-01-06T07:23:21;14.57;;;11.13;;
13230;SDS011;6681;53.254;10.398;2023-01-06T07:25:51;14.20;;;11.17;;
13230;SDS011;6681;53.254;10.398;2023-01-06T07:28:18;13.37;;;11.47;;
13230;SDS011;6681;53.254;10.398;2023-01-06T07:30:44;17.87;;;10.73;;
13230;SDS011;6681;53.254;10.398;2023-01-06T07:33:10;15.90;;;11.03;;
13230;SDS011;6681;53.254;10.398;2023-01-06T07:35:35;15.40;;;10.90;;
13230;SDS011;6681;53.254;10.398;2023-01-06T07:38:02;19.23;;;12.83;;
13230;SDS011;6681;53.254;10.398;2023-01-06T07:40:29;15.47;;;11.23;;
13230;SDS011;6681;53.254;10.398;2023-01-06T07:42:54;14.27;;;11.43;;
13230;SDS011;6681;53.254;10.398;2023-01-06T07:45:20;19.67;;;11.10;;
13230;SDS011;6681;53.254;10.398;2023-01-06T07:47:46;16.57;;;12.17;;
13230;SDS011;6681;53.254;10.398;2023-01-06T07:50:11;20.03;;;12.53;;
13230;SDS011;6681;53.254;10.398;2023-01-06T07:52:37;17.17;;;11.80;;
13230;SDS011;6681;53.254;10.398;2023-01-06T07:55:02;15.30;;;11.97;;
13230;SDS011;6681;53.254;10.398;2023-01-06T07:57:29;15.67;;;11.67;;
13230;SDS011;6681;53.254;10.398;2023-01-06T07:59:54;14.37;;;11.53;;
13230;SDS011;6681;53.254;10.398;2023-01-06T08:02:20;14.57;;;11.57;;
13230;SDS011;6681;53.254;10.398;2023-01-06T08:04:46;13.57;;;11.53;;
13230;SDS011;6681;53.254;10.398;2023-01-06T08:07:13;14.57;;;11.10;;
13230;SDS011;6681;53.254;10.398;2023-01-06T08:09:39;21.50;;;12.97;;
13230;SDS011;6681;53.254;10.398;2023-01-06T08:12:05;15.63;;;11.73;;
13230;SDS011;6681;53.254;10.398;2023-01-06T08:14:31;15.17;;;12.10;;
13230;SDS011;6681;53.254;10.398;2023-01-06T08:16:56;13.73;;;11.67;;
13230;SDS011;6681;53.254;10.398;2023-01-06T08:19:22;14.80;;;11.87;;
13230;SDS011;6681;53.254;10.398;2023-01-06T08:21:48;14.23;;;10.70;;
13230;SDS011;6681;53.254;10.398;2023-01-06T08:24:13;11.23;;;9.60;;
13230;SDS011;6681;53.254;10.398;2023-01-06T08:26:39;15.10;;;10.50;;
13230;SDS011;6681;53.254;10.398;2023-01-06T08:29:05;13.00;;;8.70;;
13230;SDS011;6681;53.254;10.398;2023-01-06T08:31:30;11.70;;;9.40;;
13230;SDS011;6681;53.254;10.398;2023-01-06T08:33:56;14.93;;;9.67;;
13230;SDS011;6681;53.254;10.398;2023-01-06T08:36:22;10.50;;;9.33;;
13230;SDS011;6681;53.254;10.398;2023-01-06T08:38:48;8.77;;;7.47;;
13230;SDS011;6681;53.254;10.398;2023-01-06T08:41:15;8.47;;;7.57;;
13230;SDS011;6681;53.254;10.398;2023-01-06T08:43:41;12.63;;;9.30;;
13230;SDS011;6681;53.254;10.398;2023-01-06T08:46:09;7.27;;;6.33;;
13230;SDS011;6681;53.254;10.398;2023-01-06T08:48:37;8.67;;;7.77;;
13230;SDS011;6681;53.254;10.398;2023-01-06T08:53:30;8.87;;;7.50;;
13230;SDS011;6681;53.254;10.398;2023-01-06T08:55:56;9.57;;;5.87;;
13230;SDS011;6681;53.254;10.398;2023-01-06T08:58:22;7.13;;;5.93;;
13230;SDS011;6681;53.254;10.398;2023-01-06T09:00:47;8.40;;;5.07;;
13230;SDS011;6681;53.254;10.398;2023-01-06T09:03:13;9.10;;;5.33;;
13230;SDS011;6681;53.254;10.398;2023-01-06T09:05:39;5.83;;;5.23;;
13230;SDS011;6681;53.254;10.398;2023-01-06T09:08:04;8.53;;;4.97;;
13230;SDS011;6681;53.254;10.398;2023-01-06T09:10:30;5.43;;;3.90;;
13230;SDS011;6681;53.254;10.398;2023-01-06T09:12:56;5.20;;;3.50;;
13230;SDS011;6681;53.254;10.398;2023-01-06T09:15:21;5.77;;;4.40;;
13230;SDS011;6681;53.254;10.398;2023-01-06T09:17:47;4.00;;;2.83;;
13230;SDS011;6681;53.254;10.398;2023-01-06T09:20:13;3.43;;;3.07;;
13230;SDS011;6681;53.254;10.398;2023-01-06T09:22:38;5.83;;;3.10;;
13230;SDS011;6681;53.254;10.398;2023-01-06T09:25:04;3.53;;;3.10;;
13230;SDS011;6681;53.254;10.398;2023-01-06T09:27:30;3.40;;;3.13;;
13230;SDS011;6681;53.254;10.398;2023-01-06T09:29:56;6.80;;;3.63;;
13230;SDS011;6681;53.254;10.398;2023-01-06T09:32:21;3.50;;;3.20;;
13230;SDS011;6681;53.254;10.398;2023-01-06T09:34:47;4.47;;;2.77;;
13230;SDS011;6681;53.254;10.398;2023-01-06T09:37:16;4.33;;;2.80;;
13230;SDS011;6681;53.254;10.398;2023-01-06T09:39:41;4.30;;;3.90;;
13230;SDS011;6681;53.254;10.398;2023-01-06T09:45:24;5.60;;;2.67;;
13230;SDS011;6681;53.254;10.398;2023-01-06T09:47:32;3.67;;;2.70;;
13230;SDS011;6681;53.254;10.398;2023-01-06T09:52:49;3.47;;;2.70;;
13230;SDS011;6681;53.254;10.398;2023-01-06T09:55:24;6.00;;;3.63;;
13230;SDS011;6681;53.254;10.398;2023-01-06T09:58:05;5.53;;;2.70;;
13230;SDS011;6681;53.254;10.398;2023-01-06T10:03:02;6.37;;;2.60;;
13230;SDS011;6681;53.254;10.398;2023-01-06T10:05:49;8.63;;;3.57;;
13230;SDS011;6681;53.254;10.398;2023-01-06T10:17:45;4.30;;;2.83;;
13230;SDS011;6681;53.254;10.398;2023-01-06T10:25:49;4.60;;;2.47;;
13230;SDS011;6681;53.254;10.398;2023-01-06T10:28:23;3.40;;;3.10;;
13230;SDS011;6681;53.254;10.398;2023-01-06T10:30:50;4.10;;;2.83;;
13230;SDS011;6681;53.254;10.398;2023-01-06T10:33:27;3.50;;;3.20;;
13230;SDS011;6681;53.254;10.398;2023-01-06T10:35:56;4.43;;;3.20;;
13230;SDS011;6681;53.254;10.398;2023-01-06T10:38:26;3.87;;;3.10;;
13230;SDS011;6681;53.254;10.398;2023-01-06T10:43:45;6.27;;;3.20;;
13230;SDS011;6681;53.254;10.398;2023-01-06T10:46:11;4.27;;;3.30;;
13230;SDS011;6681;53.254;10.398;2023-01-06T10:48:36;6.63;;;4.23;;
13230;SDS011;6681;53.254;10.398;2023-01-06T10:53:57;5.30;;;3.93;;
13230;SDS011;6681;53.254;10.398;2023-01-06T10:56:27;4.10;;;3.80;;
13230;SDS011;6681;53.254;10.398;2023-01-06T10:58:55;3.50;;;3.23;;
13230;SDS011;6681;53.254;10.398;2023-01-06T11:01:24;5.40;;;4.03;;
13230;SDS011;6681;53.254;10.398;2023-01-06T11:06:33;4.50;;;3.17;;
13230;SDS011;6681;53.254;10.398;2023-01-06T11:09:21;6.43;;;3.23;;
13230;SDS011;6681;53.254;10.398;2023-01-06T11:11:55;3.73;;;3.43;;
13230;SDS011;6681;53.254;10.398;2023-01-06T11:14:32;6.87;;;4.00;;
13230;SDS011;6681;53.254;10.398;2023-01-06T11:17:08;6.10;;;4.33;;
13230;SDS011;6681;53.254;10.398;2023-01-06T11:19:42;3.90;;;3.60;;
13230;SDS011;6681;53.254;10.398;2023-01-06T11:24:59;4.20;;;3.90;;
13230;SDS011;6681;53.254;10.398;2023-01-06T11:27:25;4.63;;;3.50;;
13230;SDS011;6681;53.254;10.398;2023-01-06T11:29:50;4.10;;;3.70;;
13230;SDS011;6681;53.254;10.398;2023-01-06T11:32:23;4.70;;;3.73;;
13230;SDS011;6681;53.254;10.398;2023-01-06T11:34:55;3.70;;;3.50;;
13230;SDS011;6681;53.254;10.398;2023-01-06T11:37:31;4.07;;;3.77;;
13230;SDS011;6681;53.254;10.398;2023-01-06T11:40:18;4.33;;;3.73;;
13230;SDS011;6681;53.254;10.398;2023-01-06T11:42:48;4.10;;;2.77;;
13230;SDS011;6681;53.254;10.398;2023-01-06T11:45:30;3.10;;;2.90;;
13230;SDS011;6681;53.254;10.398;2023-01-06T11:48:04;3.27;;;3.07;;
13230;SDS011;6681;53.254;10.398;2023-01-06T11:50:36;4.03;;;3.27;;
13230;SDS011;6681;53.254;10.398;2023-01-06T11:53:14;3.43;;;3.23;;
13230;SDS011;6681;53.254;10.398;2023-01-06T11:55:47;4.10;;;3.70;;
13230;SDS011;6681;53.254;10.398;2023-01-06T12:03:40;2.00;;;1.90;;
13230;SDS011;6681;53.254;10.398;2023-01-06T12:09:00;1.73;;;1.63;;
13230;SDS011;6681;53.254;10.398;2023-01-06T12:11:42;1.30;;;1.20;;
13230;SDS011;6681;53.254;10.398;2023-01-06T12:14:20;3.27;;;1.30;;
13230;SDS011;6681;53.254;10.398;2023-01-06T12:17:02;0.97;;;0.97;;
13230;SDS011;6681;53.254;10.398;2023-01-06T12:25:16;0.70;;;0.70;;
13230;SDS011;6681;53.254;10.398;2023-01-06T12:27:52;3.70;;;1.27;;
13230;SDS011;6681;53.254;10.398;2023-01-06T12:30:42;3.27;;;0.90;;
13230;SDS011;6681;53.254;10.398;2023-01-06T12:33:31;1.67;;;1.00;;
13230;SDS011;6681;53.254;10.398;2023-01-06T12:36:03;2.57;;;0.90;;
13230;SDS011;6681;53.254;10.398;2023-01-06T12:38:56;1.50;;;0.60;;
13230;SDS011;6681;53.254;10.398;2023-01-06T12:41:50;2.20;;;0.60;;
13230;SDS011;6681;53.254;10.398;2023-01-06T12:47:05;1.67;;;0.93;;
13230;SDS011;6681;53.254;10.398;2023-01-06T12:49:47;2.43;;;0.50;;
13230;SDS011;6681;53.254;10.398;2023-01-06T12:52:40;4.43;;;1.93;;
13230;SDS011;6681;53.254;10.398;2023-01-06T12:55:11;1.17;;;0.40;;
13230;SDS011;6681;53.254;10.398;2023-01-06T13:05:48;4.40;;;1.63;;
13230;SDS011;6681;53.254;10.398;2023-01-06T13:21:52;6.43;;;1.07;;
13230;SDS011;6681;53.254;10.398;2023-01-06T13:24:26;1.63;;;0.73;;
13230;SDS011;6681;53.254;10.398;2023-01-06T13:32:56;3.30;;;0.80;;
13230;SDS011;6681;53.254;10.398;2023-01-06T13:38:47;3.50;;;1.07;;
13230;SDS011;6681;53.254;10.398;2023-01-06T13:41:25;1.60;;;0.87;;
13230;SDS011;6681;53.254;10.398;2023-01-06T13:43:54;3.97;;;1.63;;
13230;SDS011;6681;53.254;10.398;2023-01-06T13:46:21;3.20;;;0.97;;
13230;SDS011;6681;53.254;10.398;2023-01-06T13:48:52;5.40;;;1.40;;
13230;SDS011;6681;53.254;10.398;2023-01-06T13:51:25;3.60;;;1.10;;
13230;SDS011;6681;53.254;10.398;2023-01-06T13:53:53;5.43;;;0.90;;
13230;SDS011;6681;53.254;10.398;2023-01-06T13:58:46;4.50;;;1.00;;
13230;SDS011;6681;53.254;10.398;2023-01-06T14:03:43;6.67;;;1.47;;
13230;SDS011;6681;53.254;10.398;2023-01-06T14:08:48;1.80;;;0.70;;
13230;SDS011;6681;53.254;10.398;2023-01-06T14:11:34;3.50;;;0.83;;
13230;SDS011;6681;53.254;10.398;2023-01-06T14:14:05;5.47;;;1.00;;
13230;SDS011;6681;53.254;10.398;2023-01-06T14:16:43;5.70;;;0.97;;
13230;SDS011;6681;53.254;10.398;2023-01-06T14:19:55;8.20;;;1.20;;
13230;SDS011;6681;53.254;10.398;2023-01-06T14:22:12;2.53;;;0.87;;
13230;SDS011;6681;53.254;10.398;2023-01-06T14:24:47;3.10;;;0.40;;
13230;SDS011;6681;53.254;10.398;2023-01-06T14:35:14;4.93;;;1.53;;
13230;SDS011;6681;53.254;10.398;2023-01-06T14:37:47;1.40;;;0.87;;
13230;SDS011;6681;53.254;10.398;2023-01-06T14:40:17;4.13;;;0.90;;
13230;SDS011;6681;53.254;10.398;2023-01-06T14:42:46;4.57;;;1.10;;
13230;SDS011;6681;53.254;10.398;2023-01-06T14:45:19;4.40;;;1.07;;
13230;SDS011;6681;53.254;10.398;2023-01-06T14:47:52;6.67;;;1.50;;
13230;SDS011;6681;53.254;10.398;2023-01-06T14:50:25;6.43;;;1.10;;
13230;SDS011;6681;53.254;10.398;2023-01-06T14:52:55;2.67;;;1.10;;
13230;SDS011;6681;53.254;10.398;2023-01-06T14:55:24;1.63;;;1.00;;
13230;SDS011;6681;53.254;10.398;2023-01-06T14:57:51;3.27;;;2.30;;
13230;SDS011;6681;53.254;10.398;2023-01-06T15:00:18;5.47;;;1.23;;
13230;SDS011;6681;53.254;10.398;2023-01-06T15:03:04;5.87;;;1.40;;
13230;SDS011;6681;53.254;10.398;2023-01-06T15:05:44;3.27;;;0.87;;
13230;SDS011;6681;53.254;10.398;2023-01-06T15:10:36;5.97;;;2.50;;
13230;SDS011;6681;53.254;10.398;2023-01-06T15:13:20;2.97;;;1.13;;
13230;SDS011;6681;53.254;10.398;2023-01-06T15:15:51;1.87;;;1.23;;
13230;SDS011;6681;53.254;10.398;2023-01-06T15:18:22;4.23;;;1.17;;
13230;SDS011;6681;53.254;10.398;2023-01-06T15:20:48;3.90;;;1.00;;
13230;SDS011;6681;53.254;10.398;2023-01-06T15:23:14;3.37;;;1.20;;
13230;SDS011;6681;53.254;10.398;2023-01-06T15:25:42;3.63;;;1.17;;
13230;SDS011;6681;53.254;10.398;2023-01-06T15:28:23;7.93;;;1.53;;
13230;SDS011;6681;53.254;10.398;2023-01-06T15:30:56;2.93;;;1.10;;
13230;SDS011;6681;53.254;10.398;2023-01-06T15:33:23;7.40;;;1.70;;
13230;SDS011;6681;53.254;10.398;2023-01-06T15:35:54;2.80;;;1.10;;
13230;SDS011;6681;53.254;10.398;2023-01-06T15:38:24;4.40;;;1.73;;
13230;SDS011;6681;53.254;10.398;2023-01-06T15:40:53;6.93;;;1.57;;
13230;SDS011;6681;53.254;10.398;2023-01-06T15:43:19;3.77;;;1.43;;
13230;SDS011;6681;53.254;10.398;2023-01-06T15:45:58;1.43;;;0.90;;
13230;SDS011;6681;53.254;10.398;2023-01-06T15:48:33;6.50;;;1.80;;
13230;SDS011;6681;53.254;10.398;2023-01-06T15:51:00;7.23;;;1.60;;
13230;SDS011;6681;53.254;10.398;2023-01-06T15:53:34;3.77;;;1.27;;
13230;SDS011;6681;53.254;10.398;2023-01-06T15:56:00;6.77;;;2.27;;
13230;SDS011;6681;53.254;10.398;2023-01-06T15:58:28;5.53;;;2.00;;
13230;SDS011;6681;53.254;10.398;2023-01-06T16:03:35;5.17;;;1.90;;
13230;SDS011;6681;53.254;10.398;2023-01-06T16:06:10;3.43;;;1.63;;
13230;SDS011;6681;53.254;10.398;2023-01-06T16:08:37;3.30;;;1.80;;
13230;SDS011;6681;53.254;10.398;2023-01-06T16:13:34;5.33;;;3.83;;
13230;SDS011;6681;53.254;10.398;2023-01-06T16:16:01;12.73;;;3.67;;
13230;SDS011;6681;53.254;10.398;2023-01-06T16:18:35;13.03;;;2.87;;
13230;SDS011;6681;53.254;10.398;2023-01-06T16:23:41;5.07;;;4.07;;
13230;SDS011;6681;53.254;10.398;2023-01-06T16:26:14;4.47;;;3.17;;
13230;SDS011;6681;53.254;10.398;2023-01-06T16:28:55;6.60;;;3.77;;
13230;SDS011;6681;53.254;10.398;2023-01-06T16:31:40;5.73;;;3.87;;
13230;SDS011;6681;53.254;10.398;2023-01-06T16:34:13;5.63;;;3.07;;
13230;SDS011;6681;53.254;10.398;2023-01-06T16:36:38;6.93;;;2.90;;
13230;SDS011;6681;53.254;10.398;2023-01-06T16:39:04;6.67;;;3.27;;
13230;SDS011;6681;53.254;10.398;2023-01-06T16:41:30;3.97;;;2.40;;
13230;SDS011;6681;53.254;10.398;2023-01-06T16:43:55;2.37;;;2.03;;
13230;SDS011;6681;53.254;10.398;2023-01-06T16:46:22;6.83;;;1.70;;
13230;SDS011;6681;53.254;10.398;2023-01-06T16:48:54;5.27;;;1.63;;
13230;SDS011;6681;53.254;10.398;2023-01-06T16:51:26;2.97;;;1.53;;
13230;SDS011;6681;53.254;10.398;2023-01-06T16:53:55;5.37;;;2.53;;
13230;SDS011;6681;53.254;10.398;2023-01-06T16:56:22;4.60;;;2.10;;
13230;SDS011;6681;53.254;10.398;2023-01-06T16:58:51;1.87;;;1.10;;
13230;SDS011;6681;53.254;10.398;2023-01-06T17:01:18;7.87;;;2.33;;
13230;SDS011;6681;53.254;10.398;2023-01-06T17:03:55;5.80;;;1.83;;
13230;SDS011;6681;53.254;10.398;2023-01-06T17:06:23;6.53;;;4.07;;
13230;SDS011;6681;53.254;10.398;2023-01-06T17:08:52;11.33;;;5.40;;
13230;SDS011;6681;53.254;10.398;2023-01-06T17:11:20;12.97;;;5.27;;
13230;SDS011;6681;53.254;10.398;2023-01-06T17:13:58;11.17;;;7.43;;
13230;SDS011;6681;53.254;10.398;2023-01-06T17:16:29;10.07;;;5.47;;
13230;SDS011;6681;53.254;10.398;2023-01-06T17:18:59;6.93;;;3.53;;